Time;durP1;ratioP1;P1;durP2;ratioP2;P2;SDS_P1;SDS_P2;PMS_P1;PMS_P2;Temp;Humidity;BMP_temperature;BMP_pressure;BME280_temperature;BME280_humidity;BME280_pressure;Samples;Min_cycle;Max_cycle;Signal;HPM_P1;HPM_P2
2022/04/07 00:01:10;;;;;;;3.23;1.43;;;11.30;99.90;;;;;;5053941;28;20044;-66
2022/04/07 00:03:36;;;;;;;1.80;1.03;;;11.30;99.90;;;;;;5053260;28;20033;-66
2022/04/07 00:06:01;;;;;;;2.00;1.10;;;11.30;99.90;;;;;;5053296;28;20053;-68
2022/04/07 00:08:28;;;;;;;1.47;1.07;;;11.40;99.90;;;;;;5054133;28;20044;-66
2022/04/07 00:10:54;;;;;;;1.85;1.10;;;11.40;99.90;;;;;;5053618;28;20120;-66
2022/04/07 00:13:19;;;;;;;2.05;1.13;;;11.40;99.90;;;;;;5053260;28;20499;-66
2022/04/07 00:15:45;;;;;;;1.37;0.87;;;11.30;99.90;;;;;;5053219;28;20037;-66
2022/04/07 00:18:11;;;;;;;1.23;0.90;;;11.30;99.90;;;;;;5035581;28;20028;-66
2022/04/07 00:20:37;;;;;;;3.58;1.25;;;11.40;99.90;;;;;;5053883;28;20487;-65
2022/04/07 00:23:03;;;;;;;1.25;0.80;;;11.40;99.90;;;;;;5035828;28;20025;-66
2022/04/07 00:25:29;;;;;;;;;;;11.40;99.90;;;;;;5053747;28;20035;-65
2022/04/07 00:27:55;;;;;;;1.40;0.75;;;11.30;99.90;;;;;;5052841;28;20288;-66
2022/04/07 00:30:21;;;;;;;2.13;1.05;;;11.40;99.90;;;;;;5052887;28;20102;-66
2022/04/07 00:32:49;;;;;;;3.53;1.10;;;11.50;99.90;;;;;;5053296;28;20120;-65
2022/04/07 00:35:16;;;;;;;1.55;0.80;;;11.50;99.90;;;;;;5053014;28;20029;-66
2022/04/07 00:37:42;;;;;;;2.28;1.08;;;11.50;99.90;;;;;;5052958;28;20033;-66
2022/04/07 00:40:10;;;;;;;2.42;1.00;;;11.40;99.90;;;;;;5035061;28;20036;-67
2022/04/07 00:42:49;;;;;;;1.40;0.90;;;11.50;99.90;;;;;;5052550;28;20029;-65
2022/04/07 00:45:17;;;;;;;1.38;0.90;;;11.40;99.90;;;;;;5052536;28;20071;-66
2022/04/07 00:47:44;;;;;;;2.13;0.90;;;11.30;99.90;;;;;;5052513;28;20032;-66
2022/04/07 00:50:11;;;;;;;1.23;0.80;;;11.30;99.90;;;;;;5055851;28;20028;-66
2022/04/07 00:52:42;;;;;;;1.00;0.50;;;11.30;99.90;;;;;;5056678;28;20140;-66
2022/04/07 00:55:10;;;;;;;0.93;0.50;;;11.30;99.90;;;;;;5058444;28;20040;-66
2022/04/07 00:57:37;;;;;;;0.93;0.60;;;11.30;99.90;;;;;;5056848;28;20384;-67
2022/04/07 01:00:05;;;;;;;1.08;0.60;;;11.30;99.90;;;;;;5056663;28;20162;-67
2022/04/07 01:02:30;;;;;;;1.88;0.82;;;11.30;99.90;;;;;;5056447;28;20079;-66
2022/04/07 01:04:57;;;;;;;0.63;0.60;;;11.20;99.90;;;;;;5056875;28;20025;-65
2022/04/07 01:07:24;;;;;;;1.90;0.60;;;11.20;99.90;;;;;;5057216;28;20032;-66
2022/04/07 01:09:50;;;;;;;1.23;0.60;;;11.20;99.90;;;;;;5056553;28;20029;-65
2022/04/07 01:12:16;;;;;;;2.78;0.60;;;11.10;99.90;;;;;;5056751;28;20036;-66
2022/04/07 01:15:01;;;;;;;1.60;0.50;;;11.20;99.90;;;;;;5056813;28;20040;-68
2022/04/07 01:17:31;;;;;;;2.90;0.65;;;11.30;99.90;;;;;;5056790;28;20017;-66
2022/04/07 01:19:57;;;;;;;0.88;0.70;;;11.30;99.90;;;;;;5038144;28;20032;-66
2022/04/07 01:22:23;;;;;;;0.63;0.50;;;11.30;99.90;;;;;;5055952;28;20086;-66
2022/04/07 01:24:49;;;;;;;1.42;0.68;;;11.20;99.90;;;;;;5056126;28;20068;-66
2022/04/07 01:27:16;;;;;;;1.55;0.60;;;11.20;99.90;;;;;;5055894;28;20032;-66
2022/04/07 01:29:42;;;;;;;1.83;0.90;;;11.30;99.90;;;;;;5055890;28;20061;-66
2022/04/07 01:32:14;;;;;;;;;;;11.20;99.90;;;;;;5056271;28;20029;-66
2022/04/07 01:34:41;;;;;;;1.38;0.60;;;11.20;99.90;;;;;;5055871;28;20260;-66
2022/04/07 01:37:07;;;;;;;0.80;0.65;;;11.30;99.90;;;;;;5055607;28;20032;-66
2022/04/07 01:39:35;;;;;;;1.23;0.60;;;11.20;99.90;;;;;;5037672;28;20037;-66
2022/04/07 01:42:00;;;;;;;1.52;0.70;;;11.20;99.90;;;;;;5037666;28;20025;-66
2022/04/07 01:44:27;;;;;;;0.80;0.50;;;11.20;99.90;;;;;;5055605;28;20120;-66
2022/04/07 01:46:54;;;;;;;0.95;0.47;;;11.20;99.90;;;;;;5055465;28;20025;-66
2022/04/07 01:49:22;;;;;;;1.25;0.60;;;11.10;99.90;;;;;;5055740;28;20029;-66
2022/04/07 01:51:48;;;;;;;0.90;0.70;;;11.10;99.90;;;;;;5055453;28;20033;-66
2022/04/07 01:54:15;;;;;;;1.27;0.47;;;11.00;99.90;;;;;;5037392;28;20121;-67
2022/04/07 01:56:42;;;;;;;0.80;0.60;;;10.90;99.90;;;;;;5037153;28;20029;-65
2022/04/07 01:59:08;;;;;;;1.00;0.70;;;10.80;99.90;;;;;;5055045;28;20033;-66
2022/04/07 02:01:34;;;;;;;;;;;10.80;99.90;;;;;;5055677;28;20018;-66
2022/04/07 02:04:00;;;;;;;2.78;0.70;;;10.80;99.90;;;;;;5055312;28;19911;-66
2022/04/07 02:06:26;;;;;;;1.47;0.80;;;10.70;99.90;;;;;;5037122;28;20021;-66
2022/04/07 02:08:52;;;;;;;2.60;0.90;;;10.70;99.90;;;;;;5036960;28;20502;-66
2022/04/07 02:11:17;;;;;;;0.82;0.73;;;10.70;99.90;;;;;;5055089;28;20037;-66
2022/04/07 02:13:43;;;;;;;1.83;0.80;;;10.50;99.90;;;;;;5055170;28;20025;-66
2022/04/07 02:16:10;;;;;;;1.60;0.90;;;10.50;99.90;;;;;;5054843;28;20032;-66
2022/04/07 02:18:37;;;;;;;1.77;0.80;;;10.50;99.90;;;;;;5036974;28;20060;-66
2022/04/07 02:21:03;;;;;;;1.60;0.90;;;10.50;99.90;;;;;;5055062;28;20029;-66
2022/04/07 02:23:29;;;;;;;1.30;0.65;;;10.50;99.90;;;;;;5054673;28;20025;-66
2022/04/07 02:25:55;;;;;;;2.05;0.93;;;10.40;99.90;;;;;;5055010;28;20434;-66
2022/04/07 02:28:21;;;;;;;1.83;0.60;;;10.50;99.90;;;;;;5054681;28;20033;-65
2022/04/07 02:30:47;;;;;;;4.00;0.87;;;10.40;99.90;;;;;;5054655;28;20104;-66
2022/04/07 02:33:13;;;;;;;1.55;0.70;;;10.40;99.90;;;;;;5055996;28;20291;-66
2022/04/07 02:35:39;;;;;;;1.42;0.70;;;10.50;99.90;;;;;;5054916;28;20063;-66
2022/04/07 02:38:05;;;;;;;1.60;0.75;;;10.50;99.90;;;;;;5055033;28;20045;-67
2022/04/07 02:40:31;;;;;;;0.63;0.60;;;10.60;99.90;;;;;;5055263;28;20017;-66
2022/04/07 02:42:56;;;;;;;1.13;0.63;;;10.60;99.90;;;;;;5036896;28;20017;-66
2022/04/07 02:45:22;;;;;;;1.52;0.60;;;10.70;99.90;;;;;;5054949;28;20052;-65
2022/04/07 02:47:47;;;;;;;1.07;0.70;;;10.70;99.90;;;;;;5054726;28;20041;-66
2022/04/07 02:50:13;;;;;;;0.77;0.50;;;10.70;99.90;;;;;;5055794;28;20032;-66
2022/04/07 02:52:38;;;;;;;2.77;0.90;;;10.70;99.90;;;;;;5038619;28;20080;-66
2022/04/07 02:55:05;;;;;;;0.60;0.50;;;10.80;99.90;;;;;;5037559;28;20028;-65
2022/04/07 02:57:31;;;;;;;;;;;10.70;99.90;;;;;;5055041;28;20029;-66
2022/04/07 03:00:00;;;;;;;1.52;0.60;;;10.80;99.90;;;;;;5054521;28;19904;-66
2022/04/07 03:02:27;;;;;;;1.85;0.40;;;10.70;99.90;;;;;;5036166;28;20024;-67
2022/04/07 03:04:52;;;;;;;;;;;10.80;99.90;;;;;;5036569;28;20025;-66
2022/04/07 03:07:19;;;;;;;0.55;0.50;;;10.90;99.90;;;;;;5040411;28;19912;-66
2022/04/07 03:09:45;;;;;;;3.08;0.52;;;10.90;99.90;;;;;;5036968;28;20029;-65
2022/04/07 03:12:13;;;;;;;0.83;0.50;;;10.90;99.90;;;;;;5053539;28;20040;-66
2022/04/07 03:14:39;;;;;;;1.27;0.73;;;10.90;99.90;;;;;;5053818;28;20067;-66
2022/04/07 03:17:04;;;;;;;1.02;0.50;;;10.90;99.90;;;;;;5053610;28;20032;-66
2022/04/07 03:19:30;;;;;;;0.63;0.40;;;11.00;99.90;;;;;;5036310;28;20427;-66
2022/04/07 03:21:57;;;;;;;1.57;0.50;;;10.90;99.90;;;;;;5054183;28;20494;-67
2022/04/07 03:24:24;;;;;;;1.75;0.50;;;10.90;99.90;;;;;;5054250;28;20016;-66
2022/04/07 03:26:50;;;;;;;2.28;0.50;;;10.90;99.90;;;;;;5036039;28;20025;-67
2022/04/07 03:29:19;;;;;;;1.05;0.40;;;10.90;99.90;;;;;;5053813;28;20063;-67
2022/04/07 03:31:44;;;;;;;2.35;0.68;;;10.90;99.90;;;;;;5053557;28;20364;-67
2022/04/07 03:34:10;;;;;;;0.80;0.53;;;10.90;99.90;;;;;;5054031;28;20448;-67
2022/04/07 03:36:35;;;;;;;3.07;0.77;;;10.90;99.90;;;;;;5035538;28;20040;-66
2022/04/07 03:39:02;;;;;;;1.05;0.52;;;10.90;99.90;;;;;;5053835;28;20032;-67
2022/04/07 03:41:28;;;;;;;0.77;0.60;;;10.90;99.90;;;;;;5053507;28;20063;-65
2022/04/07 03:43:57;;;;;;;0.95;0.47;;;10.90;99.90;;;;;;5053411;28;20100;-65
2022/04/07 03:46:24;;;;;;;1.27;0.52;;;10.90;99.90;;;;;;5053380;28;20029;-65
2022/04/07 03:48:50;;;;;;;0.93;0.57;;;10.90;99.90;;;;;;5035412;28;20124;-66
2022/04/07 03:51:17;;;;;;;1.10;0.40;;;10.90;99.90;;;;;;5035075;28;20031;-66
2022/04/07 03:53:43;;;;;;;2.65;0.50;;;10.80;99.90;;;;;;5053250;28;20418;-66
2022/04/07 03:56:09;;;;;;;1.20;0.60;;;10.80;99.90;;;;;;5053002;28;20109;-66
2022/04/07 03:58:34;;;;;;;0.90;0.50;;;10.80;99.90;;;;;;5053199;28;20503;-65
2022/04/07 04:01:00;;;;;;;0.93;0.50;;;10.80;99.90;;;;;;5053273;28;20032;-66
2022/04/07 04:03:25;;;;;;;1.30;0.70;;;10.80;99.90;;;;;;5053365;28;20028;-65
2022/04/07 04:05:51;;;;;;;3.40;0.90;;;10.70;99.90;;;;;;5053236;28;20029;-66
2022/04/07 04:08:16;;;;;;;1.10;0.53;;;10.70;99.90;;;;;;5035081;28;20025;-67
2022/04/07 04:10:42;;;;;;;0.77;0.67;;;10.70;99.90;;;;;;5053528;28;20059;-67
2022/04/07 04:13:07;;;;;;;2.87;0.63;;;10.80;99.90;;;;;;5053783;28;20040;-66
2022/04/07 04:15:33;;;;;;;1.03;0.70;;;10.80;99.90;;;;;;5053539;28;20029;-67
2022/04/07 04:17:59;;;;;;;2.07;0.80;;;10.90;99.90;;;;;;5053274;28;20032;-66
2022/04/07 04:20:24;;;;;;;0.93;0.70;;;10.90;99.90;;;;;;5053034;28;20150;-66
2022/04/07 04:22:50;;;;;;;1.60;0.80;;;10.80;99.90;;;;;;5052684;28;20390;-64
2022/04/07 04:25:16;;;;;;;2.63;1.15;;;10.90;99.90;;;;;;5034798;28;20395;-66
2022/04/07 04:27:42;;;;;;;2.28;1.00;;;10.80;99.90;;;;;;5052465;28;20025;-66
2022/04/07 04:30:08;;;;;;;1.83;0.93;;;10.80;99.90;;;;;;5034777;28;20032;-65
2022/04/07 04:32:34;;;;;;;1.25;0.80;;;10.90;99.90;;;;;;5036029;28;20345;-65
2022/04/07 04:34:59;;;;;;;1.43;0.90;;;10.90;99.90;;;;;;5054266;28;20036;-66
2022/04/07 04:37:26;;;;;;;0.70;0.70;;;10.90;99.90;;;;;;5035980;28;20032;-66
2022/04/07 04:39:54;;;;;;;4.60;1.33;;;10.80;99.90;;;;;;5035296;28;20029;-66
2022/04/07 04:42:20;;;;;;;0.95;0.80;;;10.80;99.90;;;;;;5052368;28;20025;-66
2022/04/07 04:44:46;;;;;;;1.57;0.70;;;10.80;99.90;;;;;;5052664;28;20025;-70
2022/04/07 04:47:13;;;;;;;1.00;0.70;;;10.80;99.90;;;;;;5035049;28;20047;-67
2022/04/07 04:49:42;;;;;;;1.30;0.70;;;10.70;99.90;;;;;;5052729;28;20045;-67
2022/04/07 04:52:09;;;;;;;3.58;0.90;;;10.70;99.90;;;;;;5052948;28;20515;-66
2022/04/07 04:54:34;;;;;;;1.75;0.70;;;10.60;99.90;;;;;;5052686;28;20496;-66
2022/04/07 04:57:00;;;;;;;1.50;0.60;;;10.60;99.90;;;;;;5052638;28;20021;-66
2022/04/07 04:59:25;;;;;;;1.43;0.57;;;10.60;99.90;;;;;;5053246;28;20081;-67
2022/04/07 05:01:51;;;;;;;1.10;0.70;;;10.70;99.90;;;;;;5052654;28;20106;-67
2022/04/07 05:04:17;;;;;;;1.33;0.97;;;10.70;99.90;;;;;;5052630;28;20021;-67
2022/04/07 05:06:42;;;;;;;2.93;0.80;;;10.60;99.90;;;;;;5052713;28;20037;-66
2022/04/07 05:09:08;;;;;;;2.83;0.83;;;10.60;99.90;;;;;;5052831;28;20025;-67
2022/04/07 05:11:34;;;;;;;2.37;0.93;;;10.60;99.90;;;;;;5052515;28;20032;-66
2022/04/07 05:14:00;;;;;;;1.70;0.80;;;10.60;99.90;;;;;;5052127;28;20305;-67
2022/04/07 05:16:26;;;;;;;1.05;0.68;;;10.60;99.90;;;;;;5052176;28;20119;-66
2022/04/07 05:18:52;;;;;;;2.20;1.03;;;10.60;99.90;;;;;;5034489;28;20032;-66
2022/04/07 05:21:18;;;;;;;13.77;7.28;;;10.60;99.90;;;;;;5052267;28;20262;-67
2022/04/07 05:23:44;;;;;;;3.47;1.92;;;10.50;99.90;;;;;;5052184;28;20025;-67
2022/04/07 05:26:12;;;;;;;2.65;1.70;;;10.50;99.90;;;;;;5034453;28;20029;-67
2022/04/07 05:28:38;;;;;;;1.92;0.98;;;10.60;99.90;;;;;;5052248;28;20078;-66
2022/04/07 05:31:04;;;;;;;;;;;10.60;99.90;;;;;;5052494;28;20398;-66
2022/04/07 05:33:29;;;;;;;1.95;0.90;;;10.60;99.90;;;;;;5052101;28;20012;-66
2022/04/07 05:35:55;;;;;;;1.20;0.90;;;10.60;99.90;;;;;;5054988;28;20029;-74
2022/04/07 05:38:21;;;;;;;2.40;0.70;;;10.70;99.90;;;;;;5061775;28;20028;-68
2022/04/07 05:40:46;;;;;;;3.63;0.63;;;10.60;99.90;;;;;;5057923;28;20033;-67
2022/04/07 05:43:12;;;;;;;3.60;0.70;;;10.70;99.90;;;;;;5055759;28;20025;-67
2022/04/07 05:45:39;;;;;;;0.93;0.73;;;10.70;99.90;;;;;;5038866;28;20128;-67
2022/04/07 05:48:05;;;;;;;1.60;0.80;;;10.70;99.90;;;;;;5056543;28;20021;-67
2022/04/07 05:50:31;;;;;;;3.00;1.45;;;10.80;99.90;;;;;;5055877;28;20027;-67
2022/04/07 05:52:57;;;;;;;1.65;1.23;;;10.80;99.90;;;;;;5057170;28;20052;-67
2022/04/07 05:55:22;;;;;;;2.00;1.10;;;10.90;99.90;;;;;;5056750;28;20033;-66
2022/04/07 05:57:49;;;;;;;0.60;0.50;;;10.90;99.90;;;;;;5056384;28;20035;-64
2022/04/07 06:00:17;;;;;;;;;;;10.90;99.90;;;;;;5056654;28;20435;-64
2022/04/07 06:02:43;;;;;;;3.63;0.80;;;10.90;99.90;;;;;;5055679;28;20362;-65
2022/04/07 06:05:09;;;;;;;1.65;1.00;;;11.00;99.90;;;;;;5055118;28;20096;-66
2022/04/07 06:07:36;;;;;;;0.65;0.55;;;11.00;99.90;;;;;;5037832;28;20059;-66
2022/04/07 06:10:02;;;;;;;;;;;11.00;99.90;;;;;;5055892;28;20480;-65
2022/04/07 06:12:28;;;;;;;0.95;0.60;;;11.00;99.90;;;;;;5054992;28;19909;-65
2022/04/07 06:14:54;;;;;;;1.13;1.00;;;11.00;99.90;;;;;;5054774;28;20029;-65
2022/04/07 06:17:19;;;;;;;2.53;0.60;;;11.00;99.90;;;;;;5054721;28;20025;-65
2022/04/07 06:19:45;;;;;;;1.40;1.20;;;10.80;99.90;;;;;;5055083;28;20025;-66
2022/04/07 06:22:12;;;;;;;0.47;0.40;;;10.80;99.90;;;;;;5055404;28;20108;-66
2022/04/07 06:24:38;;;;;;;0.57;0.40;;;10.80;99.90;;;;;;5054661;28;20061;-67
2022/04/07 06:27:04;;;;;;;1.13;0.50;;;10.80;99.90;;;;;;5054669;28;20021;-66
2022/04/07 06:29:29;;;;;;;0.47;0.35;;;10.80;99.90;;;;;;5055104;28;20079;-66
2022/04/07 06:31:55;;;;;;;1.93;0.50;;;10.70;99.90;;;;;;5037250;28;20033;-66
2022/04/07 06:34:20;;;;;;;0.50;0.40;;;10.80;99.90;;;;;;5054822;28;20028;-65
2022/04/07 06:36:47;;;;;;;1.02;0.50;;;10.80;99.90;;;;;;5036451;28;20024;-66
2022/04/07 06:39:13;;;;;;;0.45;0.30;;;10.80;99.90;;;;;;5054823;28;20372;-65
2022/04/07 06:41:39;;;;;;;3.35;1.00;;;10.90;99.90;;;;;;5054363;28;20178;-65
2022/04/07 06:44:04;;;;;;;0.60;0.33;;;10.90;99.90;;;;;;5054416;28;20033;-65
2022/04/07 06:46:32;;;;;;;0.57;0.37;;;11.00;99.90;;;;;;5054320;28;20268;-67
2022/04/07 06:48:58;;;;;;;2.20;0.40;;;10.90;99.90;;;;;;5054152;28;20479;-66
2022/04/07 06:51:24;;;;;;;2.03;0.40;;;11.00;99.90;;;;;;5036721;28;20031;-67
2022/04/07 06:53:50;;;;;;;0.57;0.40;;;10.90;99.90;;;;;;5054192;28;20121;-65
2022/04/07 06:56:15;;;;;;;4.17;0.50;;;11.00;99.90;;;;;;5054180;28;20025;-65
2022/04/07 06:58:41;;;;;;;3.03;0.40;;;10.90;99.90;;;;;;5054128;28;20026;-66
2022/04/07 07:01:08;;;;;;;1.33;0.40;;;11.00;99.90;;;;;;5054561;28;20074;-65
2022/04/07 07:03:34;;;;;;;0.38;0.30;;;11.00;99.90;;;;;;5054063;28;20028;-65
2022/04/07 07:06:00;;;;;;;1.40;0.50;;;11.00;99.90;;;;;;5035947;28;20025;-65
2022/04/07 07:08:25;;;;;;;1.23;0.30;;;10.90;99.90;;;;;;5054208;28;20037;-65
2022/04/07 07:10:52;;;;;;;0.80;0.40;;;10.80;99.90;;;;;;5054318;28;20361;-67
2022/04/07 07:13:20;;;;;;;;;;;10.80;99.90;;;;;;5054463;28;20112;-65
2022/04/07 07:15:46;;;;;;;;;;;10.80;99.90;;;;;;5054289;28;19915;-63
2022/04/07 07:18:12;;;;;;;0.65;0.35;;;10.80;99.90;;;;;;5053757;28;19944;-66
2022/04/07 07:20:38;;;;;;;1.02;0.35;;;10.90;99.90;;;;;;5053658;28;20104;-65
2022/04/07 07:23:04;;;;;;;0.93;0.52;;;10.90;99.90;;;;;;5054021;28;20464;-64
2022/04/07 07:25:31;;;;;;;0.70;0.40;;;10.90;99.90;;;;;;5053792;28;20056;-66
2022/04/07 07:27:57;;;;;;;0.68;0.40;;;10.90;99.90;;;;;;5035291;28;20029;-67
2022/04/07 07:30:23;;;;;;;2.85;0.50;;;10.90;99.90;;;;;;5053547;28;20017;-65
2022/04/07 07:32:49;;;;;;;0.50;0.50;;;10.90;99.90;;;;;;5053360;28;20031;-65
2022/04/07 07:35:19;;;;;;;1.58;0.40;;;10.90;99.90;;;;;;5053404;28;20032;-65
2022/04/07 07:37:54;;;;;;;1.05;0.50;;;10.90;99.90;;;;;;5053369;28;20082;-66
2022/04/07 07:40:22;;;;;;;1.95;0.40;;;10.90;99.90;;;;;;5053900;28;20592;-66
2022/04/07 07:42:49;;;;;;;2.42;0.35;;;11.00;99.90;;;;;;5053313;28;20020;-67
2022/04/07 07:45:15;;;;;;;;;;;10.90;99.90;;;;;;5054024;28;20025;-66
2022/04/07 07:47:40;;;;;;;2.13;0.63;;;11.00;99.90;;;;;;5053434;28;20295;-66
2022/04/07 07:50:06;;;;;;;2.43;0.50;;;11.10;99.90;;;;;;5053509;28;20071;-67
2022/04/07 07:52:32;;;;;;;1.90;0.60;;;11.20;99.90;;;;;;5053444;28;20025;-65
2022/04/07 07:54:58;;;;;;;1.45;0.57;;;11.30;99.90;;;;;;5053226;28;20387;-67
2022/04/07 07:57:24;;;;;;;2.72;0.57;;;11.40;99.90;;;;;;5034808;28;20017;-66
2022/04/07 07:59:51;;;;;;;1.80;0.50;;;11.50;99.90;;;;;;5053443;28;20053;-66
2022/04/07 08:02:16;;;;;;;1.60;0.60;;;11.50;99.90;;;;;;5053261;28;20045;-65
2022/04/07 08:04:42;;;;;;;0.50;0.50;;;11.60;99.90;;;;;;5053464;28;20488;-65
2022/04/07 08:07:08;;;;;;;0.75;0.38;;;11.70;99.90;;;;;;5059384;28;20040;-66
2022/04/07 08:09:34;;;;;;;0.40;0.40;;;11.80;99.90;;;;;;5059800;28;20395;-65
2022/04/07 08:11:59;;;;;;;1.83;0.50;;;12.00;99.90;;;;;;5053327;28;20033;-65
2022/04/07 08:14:25;;;;;;;2.23;0.60;;;12.00;99.90;;;;;;5052746;28;20044;-65
2022/04/07 08:16:51;;;;;;;0.63;0.43;;;12.10;99.90;;;;;;5052395;28;20048;-66
2022/04/07 08:19:16;;;;;;;4.13;0.40;;;12.30;99.90;;;;;;5052881;28;20082;-66
2022/04/07 08:21:42;;;;;;;0.30;0.30;;;12.60;99.90;;;;;;5035145;28;20025;-67
2022/04/07 08:24:07;;;;;;;4.73;1.00;;;12.70;99.90;;;;;;5053189;28;20025;-67
2022/04/07 08:26:34;;;;;;;2.90;0.60;;;12.70;99.90;;;;;;5034626;28;20762;-66
2022/04/07 08:28:59;;;;;;;1.15;0.52;;;12.70;99.90;;;;;;5053073;28;20260;-66
2022/04/07 08:31:25;;;;;;;2.55;0.60;;;12.70;99.90;;;;;;5053468;28;20090;-65
2022/04/07 08:33:51;;;;;;;1.03;0.37;;;12.70;99.90;;;;;;5052800;28;20498;-65
2022/04/07 08:36:16;;;;;;;1.85;0.50;;;12.60;99.90;;;;;;5034381;28;20631;-65
2022/04/07 08:38:42;;;;;;;1.57;0.50;;;12.50;99.90;;;;;;5052844;28;20156;-65
2022/04/07 08:41:11;;;;;;;1.65;0.63;;;12.30;99.90;;;;;;5052873;28;20040;-66
2022/04/07 08:43:38;;;;;;;1.63;0.80;;;12.20;99.90;;;;;;5052802;28;20074;-65
2022/04/07 08:46:08;;;;;;;2.75;0.40;;;12.20;99.90;;;;;;5052315;28;20522;-66
2022/04/07 08:48:37;;;;;;;0.85;0.50;;;12.40;99.90;;;;;;5052371;28;20057;-66
2022/04/07 08:51:05;;;;;;;1.05;0.40;;;12.40;99.90;;;;;;5052433;28;20052;-66
2022/04/07 08:53:32;;;;;;;2.13;0.55;;;12.50;99.90;;;;;;5052965;28;20040;-67
2022/04/07 08:56:02;;;;;;;0.73;0.40;;;12.40;99.90;;;;;;5052360;28;20029;-67
2022/04/07 08:58:28;;;;;;;1.17;0.60;;;12.40;99.90;;;;;;5053529;28;20025;-65
2022/04/07 09:00:54;;;;;;;2.53;0.60;;;12.40;99.90;;;;;;5056063;28;20028;-65
2022/04/07 09:03:19;;;;;;;2.53;0.40;;;12.40;99.90;;;;;;5053959;28;20029;-65
2022/04/07 09:05:59;;;;;;;0.63;0.30;;;12.30;99.90;;;;;;5052523;28;20526;-65
2022/04/07 09:08:36;;;;;;;4.20;0.63;;;12.30;99.90;;;;;;5052000;28;20025;-66
2022/04/07 09:11:06;;;;;;;2.58;0.40;;;12.40;99.90;;;;;;5055193;28;20047;-66
2022/04/07 09:13:39;;;;;;;3.35;0.45;;;12.60;99.90;;;;;;5057234;28;20033;-67
2022/04/07 09:16:07;;;;;;;0.93;0.45;;;12.70;99.90;;;;;;5057695;28;20107;-66
2022/04/07 09:18:35;;;;;;;1.40;0.43;;;12.90;99.90;;;;;;5055906;28;20442;-66
2022/04/07 09:21:01;;;;;;;0.70;0.40;;;13.00;99.90;;;;;;5055857;28;20076;-66
2022/04/07 09:23:30;;;;;;;2.40;0.50;;;12.90;99.90;;;;;;5037860;28;20411;-65
2022/04/07 09:25:57;;;;;;;2.40;0.55;;;12.60;99.90;;;;;;5055988;28;20080;-66
2022/04/07 09:28:29;;;;;;;1.55;0.40;;;12.30;99.90;;;;;;5055843;28;20371;-67
2022/04/07 09:31:00;;;;;;;1.63;0.40;;;12.10;99.90;;;;;;5055934;28;20406;-65
2022/04/07 09:33:27;;;;;;;1.58;0.40;;;12.20;99.90;;;;;;5056146;28;20021;-65
2022/04/07 09:35:59;;;;;;;0.60;0.40;;;12.10;99.90;;;;;;5055578;28;20029;-65
2022/04/07 09:38:25;;;;;;;1.75;0.50;;;12.20;99.90;;;;;;5055474;28;20040;-67
2022/04/07 09:40:51;;;;;;;;;;;12.10;99.90;;;;;;5037997;28;20048;-66
2022/04/07 09:43:17;;;;;;;0.55;0.32;;;12.10;99.90;;;;;;5055854;28;19911;-66
2022/04/07 09:45:45;;;;;;;4.53;0.70;;;12.10;99.90;;;;;;5055534;28;20029;-65
2022/04/07 09:48:17;;;;;;;1.85;0.40;;;12.10;99.90;;;;;;5055314;28;20032;-65
2022/04/07 09:51:01;;;;;;;2.20;0.50;;;12.10;99.90;;;;;;5055501;28;20452;-65
2022/04/07 09:53:39;;;;;;;0.73;0.40;;;12.20;99.90;;;;;;5055715;28;20025;-66
2022/04/07 09:56:07;;;;;;;1.08;0.50;;;12.20;99.90;;;;;;5055444;28;20029;-65
2022/04/07 09:58:34;;;;;;;1.73;0.50;;;12.30;99.90;;;;;;5037623;28;20045;-65
2022/04/07 10:01:02;;;;;;;0.50;0.32;;;12.40;99.90;;;;;;5056189;28;20021;-64
2022/04/07 10:03:29;;;;;;;0.63;0.50;;;12.50;99.90;;;;;;5056349;28;20021;-66
2022/04/07 10:05:56;;;;;;;0.85;0.40;;;12.60;99.90;;;;;;5058807;28;20021;-65
2022/04/07 10:08:23;;;;;;;0.63;0.35;;;12.60;99.90;;;;;;5057318;28;20021;-67
2022/04/07 10:10:49;;;;;;;1.05;0.50;;;12.80;99.90;;;;;;5057294;28;20025;-66
2022/04/07 10:13:15;;;;;;;;;;;13.20;99.90;;;;;;5055427;28;20025;-65
2022/04/07 10:15:42;;;;;;;1.30;0.50;;;13.50;99.90;;;;;;5054602;28;20007;-66
2022/04/07 10:18:16;;;;;;;0.85;0.30;;;13.70;99.90;;;;;;5054814;28;20116;-66
2022/04/07 10:20:47;;;;;;;1.73;0.40;;;13.60;99.90;;;;;;5054878;28;20107;-64
2022/04/07 10:23:34;;;;;;;4.03;0.47;;;13.80;99.90;;;;;;5036747;28;20021;-65
2022/04/07 10:26:01;;;;;;;0.30;0.30;;;14.40;99.90;;;;;;5054697;28;20392;-67
2022/04/07 10:28:27;;;;;;;0.85;0.40;;;14.50;99.90;;;;;;5054903;28;20043;-64
2022/04/07 10:30:54;;;;;;;1.60;0.30;;;14.60;99.90;;;;;;5036666;28;20025;-65
2022/04/07 10:33:38;;;;;;;1.88;0.68;;;14.70;99.90;;;;;;5054820;28;20021;-66
2022/04/07 10:36:17;;;;;;;0.63;0.30;;;14.40;99.90;;;;;;5054333;28;20025;-66
2022/04/07 10:38:44;;;;;;;1.95;0.30;;;14.20;99.90;;;;;;5054650;28;20029;-65
2022/04/07 10:41:11;;;;;;;0.20;0.20;;;14.30;99.90;;;;;;5054696;28;20051;-66
2022/04/07 10:43:40;;;;;;;0.30;0.30;;;14.80;99.90;;;;;;5036538;28;20104;-65
2022/04/07 10:46:18;;;;;;;0.85;0.20;;;14.80;99.90;;;;;;5054176;28;20480;-65
2022/04/07 10:48:48;;;;;;;1.60;0.30;;;14.70;99.90;;;;;;5054316;28;20413;-66
2022/04/07 10:51:14;;;;;;;1.00;0.40;;;14.30;99.90;;;;;;5054389;28;20028;-66
2022/04/07 10:53:59;;;;;;;0.43;0.38;;;13.90;99.90;;;;;;5054055;28;20029;-66
2022/04/07 10:56:34;;;;;;;0.60;0.32;;;13.80;99.90;;;;;;5054222;28;20044;-67
2022/04/07 10:59:24;;;;;;;0.30;0.30;;;13.80;99.90;;;;;;5053949;28;20024;-66
2022/04/07 11:01:57;;;;;;;0.25;0.20;;;13.80;99.90;;;;;;5054240;28;20025;-65
2022/04/07 11:04:22;;;;;;;0.77;0.30;;;14.40;99.90;;;;;;5054579;28;20099;-66
2022/04/07 11:07:10;;;;;;;0.40;0.30;;;14.80;99.90;;;;;;5054969;28;20104;-66
2022/04/07 11:09:54;;;;;;;2.10;0.40;;;14.90;99.90;;;;;;5053777;28;20434;-66
2022/04/07 11:12:33;;;;;;;1.02;0.40;;;15.00;99.90;;;;;;5036234;28;20387;-65
2022/04/07 11:15:02;;;;;;;0.40;0.30;;;14.80;99.90;;;;;;5054173;28;20086;-67
2022/04/07 11:17:32;;;;;;;0.85;0.35;;;14.50;99.90;;;;;;5053825;28;20124;-66
2022/04/07 11:20:13;;;;;;;2.67;0.28;;;14.50;99.90;;;;;;5053701;28;20029;-67
2022/04/07 11:23:04;;;;;;;1.05;0.40;;;14.50;99.90;;;;;;5053864;28;20025;-66
2022/04/07 11:25:33;;;;;;;0.20;0.20;;;14.40;99.90;;;;;;5053611;28;20025;-66
2022/04/07 11:28:04;;;;;;;1.02;0.40;;;14.30;99.90;;;;;;5053452;28;20033;-66
2022/04/07 11:30:40;;;;;;;0.73;0.30;;;14.30;99.90;;;;;;5053374;28;20028;-66
2022/04/07 11:33:18;;;;;;;0.30;0.30;;;14.20;99.90;;;;;;5034965;28;20021;-66
2022/04/07 11:36:04;;;;;;;0.57;0.30;;;14.10;99.90;;;;;;5053822;28;20502;-66
2022/04/07 11:38:31;;;;;;;0.85;0.35;;;14.00;99.90;;;;;;5057811;28;20452;-66
2022/04/07 11:41:10;;;;;;;0.35;0.20;;;13.90;99.90;;;;;;5057796;28;20029;-67
2022/04/07 11:43:38;;;;;;;0.40;0.40;;;13.80;99.90;;;;;;5054316;28;20017;-63
2022/04/07 11:46:04;;;;;;;1.63;0.45;;;13.80;99.90;;;;;;5054416;28;20025;-64
2022/04/07 11:48:32;;;;;;;0.85;0.30;;;13.80;99.90;;;;;;5053851;28;20021;-65
2022/04/07 11:51:01;;;;;;;2.08;0.32;;;13.80;99.90;;;;;;5035529;28;20028;-65
2022/04/07 11:53:30;;;;;;;1.00;0.40;;;13.90;99.90;;;;;;5054808;28;20051;-65
2022/04/07 11:56:17;;;;;;;0.43;0.25;;;14.00;99.90;;;;;;5054562;28;20039;-66
2022/04/07 11:58:44;;;;;;;;;;;14.00;99.90;;;;;;5054829;28;20040;-66
2022/04/07 12:01:11;;;;;;;1.27;0.40;;;13.70;99.90;;;;;;5054611;28;19904;-66
2022/04/07 12:03:38;;;;;;;1.30;0.40;;;13.50;99.90;;;;;;5054867;28;20017;-67
2022/04/07 12:06:04;;;;;;;2.10;0.47;;;13.40;99.90;;;;;;5057152;28;20033;-66
2022/04/07 12:08:31;;;;;;;1.98;0.50;;;13.50;99.90;;;;;;5055536;28;20423;-66
2022/04/07 12:10:58;;;;;;;0.20;0.20;;;13.60;99.90;;;;;;5054724;28;20033;-67
2022/04/07 12:13:23;;;;;;;0.75;0.50;;;13.80;99.90;;;;;;5054929;28;20426;-66
2022/04/07 12:15:49;;;;;;;0.65;0.30;;;13.90;99.90;;;;;;5053673;28;20025;-64
2022/04/07 12:18:25;;;;;;;2.47;0.40;;;13.90;99.90;;;;;;5053747;28;20337;-64
2022/04/07 12:20:58;;;;;;;0.85;0.32;;;13.90;99.90;;;;;;5053812;28;20056;-66
2022/04/07 12:23:27;;;;;;;0.25;0.25;;;13.90;99.90;;;;;;5037012;28;20025;-66
2022/04/07 12:25:59;;;;;;;1.08;0.40;;;14.00;99.90;;;;;;5053134;28;20365;-66
2022/04/07 12:28:38;;;;;;;0.70;0.32;;;14.00;99.90;;;;;;5052915;28;20021;-66
2022/04/07 12:31:10;;;;;;;1.75;0.50;;;14.00;99.90;;;;;;5052817;28;20021;-66
2022/04/07 12:33:45;;;;;;;0.90;0.30;;;14.00;99.90;;;;;;5053352;28;20476;-66
2022/04/07 12:36:13;;;;;;;1.25;0.25;;;14.10;99.90;;;;;;5052899;28;20112;-66
2022/04/07 12:38:40;;;;;;;0.95;0.45;;;14.20;99.90;;;;;;5053186;28;20021;-67
2022/04/07 12:41:16;;;;;;;0.60;0.40;;;14.30;99.90;;;;;;5052785;28;20025;-66
2022/04/07 12:43:46;;;;;;;1.02;0.35;;;14.20;99.90;;;;;;5053371;28;20104;-65
2022/04/07 12:46:11;;;;;;;2.05;0.30;;;14.20;99.90;;;;;;5056733;28;20048;-66
2022/04/07 12:48:37;;;;;;;0.43;0.30;;;14.10;99.90;;;;;;5056686;28;20468;-67
2022/04/07 12:51:22;;;;;;;2.60;0.40;;;14.10;99.90;;;;;;5056591;28;20029;-65
2022/04/07 12:53:47;;;;;;;0.75;0.50;;;14.20;99.90;;;;;;5056464;28;20548;-66